createdAt,value
2023-04-16T00:30:35.644Z,8.52
2023-04-16T00:34:38.902Z,8.52
2023-04-16T00:38:42.151Z,8.57
2023-04-16T00:42:45.195Z,8.59
2023-04-16T00:46:50.219Z,8.53
2023-04-16T00:50:55.209Z,8.49
2023-04-16T00:54:58.356Z,8.52
2023-04-16T00:59:01.570Z,8.46
2023-04-16T01:03:06.680Z,8.33
2023-04-16T01:07:10.185Z,8.33
2023-04-16T01:11:13.427Z,8.43
2023-04-16T01:15:16.530Z,8.39
2023-04-16T01:19:21.020Z,8.32
2023-04-16T01:23:25.851Z,8.32
2023-04-16T01:27:29.034Z,8.23
2023-04-16T01:31:32.219Z,8.15
2023-04-16T01:35:35.269Z,8.18
2023-04-16T01:39:39.891Z,8.25
2023-04-16T01:43:42.989Z,8.12
2023-04-16T01:47:46.056Z,8.11
2023-04-16T01:51:49.593Z,8.18
2023-04-16T01:55:54.076Z,8.16
2023-04-16T01:59:57.085Z,8.17
2023-04-16T02:04:00.223Z,8.12
2023-04-16T02:08:03.583Z,8.07
2023-04-16T02:12:09.877Z,7.90
2023-04-16T02:16:12.948Z,7.93
2023-04-16T02:20:16.393Z,7.90
2023-04-16T02:24:19.423Z,7.89
2023-04-16T02:28:23.954Z,7.89
2023-04-16T02:32:27.214Z,7.82
2023-04-16T02:36:31.733Z,7.79
2023-04-16T02:40:34.908Z,7.73
2023-04-16T02:44:39.513Z,7.74
2023-04-16T02:48:42.570Z,7.65
2023-04-16T02:52:45.948Z,7.60
2023-04-16T02:56:49.028Z,7.53
2023-04-16T03:00:54.328Z,7.41
2023-04-16T03:04:57.630Z,7.55
2023-04-16T03:09:00.697Z,7.50
2023-04-16T03:13:04.279Z,7.48
2023-04-16T03:17:08.976Z,7.47
2023-04-16T03:21:12.058Z,7.50
2023-04-16T03:25:15.348Z,7.51
2023-04-16T03:29:18.489Z,7.67
2023-04-16T03:33:22.990Z,7.67
2023-04-16T03:37:26.407Z,7.68
2023-04-16T03:41:29.540Z,7.46
2023-04-16T03:45:32.742Z,7.57
2023-04-16T03:49:37.119Z,7.51
2023-04-16T03:53:40.258Z,7.40
2023-04-16T03:57:43.364Z,7.33
2023-04-16T04:01:46.794Z,7.26
2023-04-16T04:05:51.350Z,7.20
2023-04-16T04:09:54.749Z,7.37
2023-04-16T04:13:57.799Z,7.36
2023-04-16T04:18:01.011Z,7.48
2023-04-16T04:22:05.911Z,7.49
2023-04-16T04:26:08.874Z,7.62
2023-04-16T04:30:13.153Z,7.55
2023-04-16T04:34:16.212Z,7.43
2023-04-16T04:38:22.173Z,7.57
2023-04-16T04:42:26.016Z,7.65
2023-04-16T04:46:29.309Z,7.68
2023-04-16T04:50:32.068Z,7.69
2023-04-16T04:54:36.619Z,7.68
2023-04-16T04:58:39.437Z,7.69
2023-04-16T05:02:42.694Z,7.77
2023-04-16T05:06:45.729Z,7.71
2023-04-16T05:10:50.136Z,7.73
2023-04-16T05:14:53.076Z,7.83
2023-04-16T05:18:56.187Z,7.66
2023-04-16T05:22:59.144Z,7.83
2023-04-16T05:27:03.579Z,7.80
2023-04-16T05:31:06.933Z,7.80
2023-04-16T05:35:11.094Z,7.74
2023-04-16T05:39:14.146Z,7.77
2023-04-16T05:43:18.890Z,7.66
2023-04-16T05:47:21.941Z,7.39
2023-04-16T05:51:26.332Z,7.79
2023-04-16T05:55:29.098Z,7.81
2023-04-16T05:59:34.818Z,7.80
2023-04-16T06:03:37.827Z,7.93
2023-04-16T06:07:40.827Z,7.87
2023-04-16T06:11:43.890Z,7.87
2023-04-16T06:15:48.544Z,8.10
2023-04-16T06:19:51.593Z,10.79
2023-04-16T06:23:56.179Z,9.63
2023-04-16T06:27:59.116Z,8.62
2023-04-16T06:32:03.950Z,8.54
2023-04-16T06:36:06.885Z,8.69
2023-04-16T06:40:10.946Z,9.36
2023-04-16T06:44:14.665Z,11.87
2023-04-16T06:48:19.276Z,13.48
2023-04-16T06:52:22.411Z,14.52
2023-04-16T06:56:25.115Z,11.48
2023-04-16T07:00:28.452Z,10.66
2023-04-16T07:04:32.794Z,10.39
2023-04-16T07:08:35.881Z,12.07
2023-04-16T07:12:38.978Z,13.24
2023-04-16T07:16:42.307Z,12.20
2023-04-16T07:20:46.901Z,10.89
2023-04-16T07:24:49.894Z,10.33
2023-04-16T07:28:53.045Z,10.11
2023-04-16T07:32:56.063Z,9.40
2023-04-16T07:37:00.920Z,8.94
2023-04-16T07:41:04.221Z,8.79
2023-04-16T07:45:08.521Z,8.86
2023-04-16T07:49:11.840Z,9.21
2023-04-16T07:53:16.324Z,9.02
2023-04-16T07:57:19.305Z,9.65
2023-04-16T08:01:22.859Z,9.42
2023-04-16T08:05:25.821Z,9.30
2023-04-16T08:09:30.332Z,9.72
2023-04-16T08:13:33.762Z,9.47
2023-04-16T08:17:37.958Z,9.74
2023-04-16T08:21:41.216Z,9.85
2023-04-16T08:25:45.595Z,9.47
2023-04-16T08:29:48.692Z,9.90
2023-04-16T08:33:51.643Z,10.20
2023-04-16T08:37:54.707Z,9.94
2023-04-16T08:41:59.656Z,9.64
2023-04-16T08:46:03.239Z,9.81
2023-04-16T08:50:06.542Z,9.95
2023-04-16T08:54:11.170Z,9.60
2023-04-16T08:58:16.529Z,9.57
2023-04-16T09:02:19.684Z,10.00
2023-04-16T09:06:23.094Z,10.08
2023-04-16T09:10:26.700Z,10.25
2023-04-16T09:14:30.711Z,10.62
2023-04-16T09:18:33.850Z,11.15
2023-04-16T09:22:36.856Z,11.13
2023-04-16T09:26:40.049Z,11.46
2023-04-16T09:30:48.138Z,11.20
2023-04-16T09:34:59.347Z,11.10
2023-04-16T09:39:02.615Z,11.02
2023-04-16T09:43:12.509Z,10.53
2023-04-16T09:47:18.397Z,10.58
2023-04-16T09:51:21.533Z,10.71
2023-04-16T09:55:27.982Z,11.00
2023-04-16T09:59:34.395Z,10.80
2023-04-16T10:03:40.035Z,10.98
2023-04-16T10:07:43.523Z,10.84
2023-04-16T10:11:46.652Z,10.66
2023-04-16T10:15:50.002Z,10.79
2023-04-16T10:19:55.976Z,11.05
2023-04-16T10:23:59.061Z,10.81
2023-04-16T10:28:01.946Z,10.74
2023-04-16T10:32:05.393Z,10.84
2023-04-16T10:36:10.619Z,11.04
2023-04-16T10:40:24.584Z,11.13
2023-04-16T10:44:27.968Z,11.20
2023-04-16T10:48:38.724Z,11.39
2023-04-16T10:53:20.756Z,11.66
2023-04-16T10:57:23.797Z,11.71
2023-04-16T11:01:34.947Z,11.91
2023-04-16T11:05:48.054Z,12.11
2023-04-16T11:09:58.074Z,11.89
2023-04-16T11:14:01.260Z,12.11
2023-04-16T11:18:06.894Z,11.95
2023-04-16T11:22:11.680Z,11.93
2023-04-16T11:26:26.283Z,12.30
2023-04-16T11:30:30.931Z,12.45
2023-04-16T11:34:34.016Z,12.87
2023-04-16T11:38:38.100Z,12.65
2023-04-16T11:42:43.523Z,12.67
2023-04-16T11:46:46.485Z,12.49
2023-04-16T11:50:57.038Z,12.88
2023-04-16T11:55:00.919Z,12.85
2023-04-16T11:59:13.241Z,13.41
2023-04-16T12:03:16.883Z,13.27
2023-04-16T12:07:19.912Z,14.15
2023-04-16T12:11:23.292Z,13.86
2023-04-16T12:15:45.023Z,14.56
2023-04-16T12:19:53.025Z,14.55
2023-04-16T12:23:55.725Z,14.43
2023-04-16T12:27:59.045Z,14.33
2023-04-16T12:32:03.213Z,14.31
2023-04-16T12:36:18.844Z,14.38
2023-04-16T12:40:21.749Z,14.48
2023-04-16T12:44:25.200Z,14.07
2023-04-16T12:48:30.272Z,14.55
2023-04-16T12:52:33.474Z,14.39
2023-04-16T12:56:39.267Z,13.84
2023-04-16T13:00:42.396Z,13.65
2023-04-16T13:04:46.861Z,13.98
2023-04-16T13:08:49.650Z,13.76
2023-04-16T13:12:52.847Z,14.51
2023-04-16T13:16:55.647Z,14.32
2023-04-16T13:21:00.436Z,13.69
2023-04-16T13:25:03.324Z,13.71
2023-04-16T13:29:06.496Z,13.99
2023-04-16T13:33:09.440Z,13.97
2023-04-16T13:37:15.395Z,13.89
2023-04-16T13:41:18.325Z,13.74
2023-04-16T13:45:21.892Z,13.65
2023-04-16T13:49:25.457Z,14.11
2023-04-16T13:53:32.973Z,13.77
2023-04-16T13:57:36.673Z,14.29
2023-04-16T14:01:40.080Z,13.79
2023-04-16T14:05:43.420Z,13.48
2023-04-16T14:09:47.750Z,13.94
2023-04-16T14:13:51.483Z,13.51
2023-04-16T14:17:55.071Z,13.69
2023-04-16T14:21:58.117Z,13.36
2023-04-16T14:26:02.812Z,13.64
2023-04-16T14:30:07.073Z,13.17
2023-04-16T14:34:09.919Z,12.45
2023-04-16T14:38:12.951Z,12.59
2023-04-16T14:42:17.434Z,13.56
2023-04-16T14:46:20.161Z,13.74
2023-04-16T14:50:23.508Z,13.83
2023-04-16T14:54:26.606Z,13.28
2023-04-16T14:58:31.795Z,13.29
2023-04-16T15:02:35.493Z,13.67
2023-04-16T15:06:38.468Z,12.87
2023-04-16T15:10:43.516Z,12.53
2023-04-16T15:14:48.011Z,12.29
2023-04-16T15:18:51.597Z,12.27
2023-04-16T15:22:54.389Z,12.02
2023-04-16T15:26:58.063Z,11.92
2023-04-16T15:31:02.532Z,11.80
2023-04-16T15:35:06.271Z,12.28
2023-04-16T15:39:09.736Z,12.11
2023-04-16T15:43:12.878Z,11.92
2023-04-16T15:47:17.170Z,12.60
2023-04-16T15:51:20.528Z,12.83
2023-04-16T15:55:23.214Z,12.85
2023-04-16T15:59:26.532Z,13.05
2023-04-16T16:03:33.030Z,12.57
2023-04-16T16:07:37.605Z,12.14
2023-04-16T16:11:41.462Z,11.93
2023-04-16T16:15:44.322Z,12.04
2023-04-16T16:19:49.335Z,11.64
2023-04-16T16:23:52.627Z,11.97
2023-04-16T16:27:55.562Z,11.91
2023-04-16T16:31:58.551Z,12.05
2023-04-16T16:36:02.984Z,11.62
2023-04-16T16:40:07.804Z,11.47
2023-04-16T16:44:10.598Z,11.51
2023-04-16T16:48:13.562Z,11.43
2023-04-16T16:52:18.132Z,11.50
2023-04-16T16:56:21.129Z,11.52
2023-04-16T17:00:24.372Z,11.28
2023-04-16T17:04:27.232Z,10.97
2023-04-16T17:08:31.777Z,11.26
2023-04-16T17:12:34.576Z,10.95
2023-04-16T17:16:37.539Z,11.13
2023-04-16T17:20:40.573Z,11.06
2023-04-16T17:24:45.169Z,11.28
2023-04-16T17:28:48.089Z,10.68
2023-04-16T17:32:50.992Z,10.68
2023-04-16T17:36:54.120Z,10.19
2023-04-16T17:40:58.877Z,10.38
2023-04-16T17:45:02.112Z,10.22
2023-04-16T17:49:05.199Z,10.11
2023-04-16T17:53:08.010Z,10.01
2023-04-16T17:57:12.508Z,9.92
2023-04-16T18:01:15.638Z,9.87
2023-04-16T18:05:19.108Z,9.97
2023-04-16T18:09:22.006Z,9.96
2023-04-16T18:13:26.642Z,10.06
2023-04-16T18:17:29.408Z,9.92
2023-04-16T18:21:32.276Z,9.88
2023-04-16T18:25:35.454Z,9.75
2023-04-16T18:29:40.740Z,9.88
2023-04-16T18:33:56.773Z,9.88
2023-04-16T18:38:01.679Z,9.94
2023-04-16T18:42:05.264Z,9.89
2023-04-16T18:46:09.477Z,9.79
2023-04-16T18:50:12.423Z,9.96
2023-04-16T18:54:15.856Z,9.90
2023-04-16T18:58:18.998Z,9.96
2023-04-16T19:02:24.186Z,10.00
2023-04-16T19:06:27.907Z,9.92
2023-04-16T19:10:31.076Z,9.93
2023-04-16T19:14:34.266Z,9.87
2023-04-16T19:18:38.638Z,9.72
2023-04-16T19:22:41.671Z,9.85
2023-04-16T19:26:44.448Z,9.24
2023-04-16T19:30:47.320Z,9.47
2023-04-16T19:34:51.405Z,9.59
2023-04-16T19:38:54.310Z,9.66
2023-04-16T19:42:57.239Z,9.62
2023-04-16T19:46:59.985Z,9.56
2023-04-16T19:51:05.588Z,9.30
2023-04-16T19:55:09.499Z,9.49
2023-04-16T19:59:12.309Z,9.27
2023-04-16T20:03:15.099Z,9.28
2023-04-16T20:07:19.282Z,9.45
2023-04-16T20:11:21.871Z,9.21
2023-04-16T20:15:24.526Z,9.13
2023-04-16T20:19:33.666Z,9.49
2023-04-16T20:23:37.927Z,9.45
2023-04-16T20:27:40.628Z,9.45
2023-04-16T20:31:44.407Z,9.31
2023-04-16T20:35:47.804Z,9.32
2023-04-16T20:39:54.109Z,8.99
2023-04-16T20:43:56.922Z,8.95
2023-04-16T20:48:00.380Z,8.86
2023-04-16T20:52:03.575Z,8.89
2023-04-16T20:56:09.208Z,8.90
2023-04-16T21:00:12.855Z,8.85
2023-04-16T21:04:15.971Z,8.97
2023-04-16T21:08:19.169Z,8.87
2023-04-16T21:12:23.253Z,8.83
2023-04-16T21:16:25.972Z,8.94
2023-04-16T21:20:30.481Z,9.04
2023-04-16T21:24:33.529Z,8.78
2023-04-16T21:28:37.607Z,8.92
2023-04-16T21:32:40.264Z,8.97
2023-04-16T21:36:42.907Z,8.98
2023-04-16T21:40:46.681Z,8.86
2023-04-16T21:44:50.723Z,8.93
2023-04-16T21:48:53.807Z,8.82
2023-04-16T21:52:56.610Z,8.85
2023-04-16T21:56:59.399Z,8.92
2023-04-16T22:01:03.747Z,8.58
2023-04-16T22:05:07.430Z,8.50
2023-04-16T22:09:10.352Z,8.59
2023-04-16T22:13:13.988Z,8.79
2023-04-16T22:17:18.208Z,8.64
2023-04-16T22:21:21.043Z,8.68
2023-04-16T22:25:24.165Z,8.68
2023-04-16T22:29:27.052Z,8.69
2023-04-16T22:33:31.585Z,8.49
2023-04-16T22:37:34.767Z,8.39
2023-04-16T22:41:37.514Z,8.42
2023-04-16T22:45:41.405Z,8.29
2023-04-16T22:49:45.772Z,8.50
2023-04-16T22:53:48.446Z,8.51
2023-04-16T22:57:51.142Z,8.35
2023-04-16T23:01:54.227Z,8.51
2023-04-16T23:05:58.666Z,8.47
2023-04-16T23:10:01.440Z,8.45
2023-04-16T23:14:05.036Z,8.51
2023-04-16T23:18:07.875Z,8.19
2023-04-16T23:22:12.246Z,8.62
2023-04-16T23:26:14.937Z,8.41
2023-04-16T23:30:18.101Z,8.28
2023-04-16T23:34:20.927Z,8.35
2023-04-16T23:38:25.193Z,8.12
2023-04-16T23:42:28.049Z,8.03
2023-04-16T23:46:31.170Z,8.31
2023-04-16T23:50:34.046Z,8.35
2023-04-16T23:54:38.459Z,8.28
2023-04-16T23:58:41.162Z,7.78
